sensor_id;sensor_type;location;lat;lon;timestamp;P1;durP1;ratioP1;P2;durP2;ratioP2
9986;SDS011;5033;46.310;11.214;2023-06-14T00:02:02;2.92;;;2.70;;
9986;SDS011;5033;46.310;11.214;2023-06-14T00:04:29;2.88;;;2.55;;
9986;SDS011;5033;46.310;11.214;2023-06-14T00:06:56;2.70;;;2.50;;
9986;SDS011;5033;46.310;11.214;2023-06-14T00:09:23;2.70;;;2.50;;
9986;SDS011;5033;46.310;11.214;2023-06-14T00:11:51;3.10;;;2.90;;
9986;SDS011;5033;46.310;11.214;2023-06-14T00:14:18;2.53;;;2.38;;
9986;SDS011;5033;46.310;11.214;2023-06-14T00:16:45;2.30;;;2.20;;
9986;SDS011;5033;46.310;11.214;2023-06-14T00:19:12;2.10;;;2.00;;
9986;SDS011;5033;46.310;11.214;2023-06-14T00:21:40;2.00;;;1.90;;
9986;SDS011;5033;46.310;11.214;2023-06-14T00:24:08;2.38;;;2.00;;
9986;SDS011;5033;46.310;11.214;2023-06-14T00:26:35;2.10;;;2.00;;
9986;SDS011;5033;46.310;11.214;2023-06-14T00:29:03;1.73;;;1.63;;
9986;SDS011;5033;46.310;11.214;2023-06-14T00:31:30;1.88;;;1.77;;
9986;SDS011;5033;46.310;11.214;2023-06-14T00:33:57;1.50;;;1.40;;
9986;SDS011;5033;46.310;11.214;2023-06-14T00:36:24;1.80;;;1.70;;
9986;SDS011;5033;46.310;11.214;2023-06-14T00:41:37;1.58;;;1.48;;
9986;SDS011;5033;46.310;11.214;2023-06-14T00:44:05;1.60;;;1.50;;
9986;SDS011;5033;46.310;11.214;2023-06-14T00:46:32;2.00;;;1.90;;
9986;SDS011;5033;46.310;11.214;2023-06-14T00:49:04;1.55;;;1.50;;
9986;SDS011;5033;46.310;11.214;2023-06-14T00:51:47;2.10;;;1.90;;
9986;SDS011;5033;46.310;11.214;2023-06-14T00:54:23;1.90;;;1.80;;
9986;SDS011;5033;46.310;11.214;2023-06-14T00:56:50;1.70;;;1.60;;
9986;SDS011;5033;46.310;11.214;2023-06-14T00:59:18;1.80;;;1.70;;
9986;SDS011;5033;46.310;11.214;2023-06-14T01:01:45;1.65;;;1.55;;
9986;SDS011;5033;46.310;11.214;2023-06-14T01:04:13;1.70;;;1.60;;
9986;SDS011;5033;46.310;11.214;2023-06-14T01:06:41;2.03;;;1.80;;
9986;SDS011;5033;46.310;11.214;2023-06-14T01:09:18;1.75;;;1.65;;
9986;SDS011;5033;46.310;11.214;2023-06-14T01:11:55;1.80;;;1.70;;
9986;SDS011;5033;46.310;11.214;2023-06-14T01:14:27;1.90;;;1.80;;
9986;SDS011;5033;46.310;11.214;2023-06-14T01:16:54;1.95;;;1.85;;
9986;SDS011;5033;46.310;11.214;2023-06-14T01:19:22;1.70;;;1.60;;
9986;SDS011;5033;46.310;11.214;2023-06-14T01:21:51;1.73;;;1.63;;
9986;SDS011;5033;46.310;11.214;2023-06-14T01:24:19;1.50;;;1.40;;
9986;SDS011;5033;46.310;11.214;2023-06-14T01:26:48;1.60;;;1.50;;
9986;SDS011;5033;46.310;11.214;2023-06-14T01:29:20;1.60;;;1.50;;
9986;SDS011;5033;46.310;11.214;2023-06-14T01:31:48;1.60;;;1.50;;
9986;SDS011;5033;46.310;11.214;2023-06-14T01:34:16;1.55;;;1.45;;
9986;SDS011;5033;46.310;11.214;2023-06-14T01:36:43;1.55;;;1.45;;
9986;SDS011;5033;46.310;11.214;2023-06-14T01:39:11;1.60;;;1.50;;
9986;SDS011;5033;46.310;11.214;2023-06-14T01:41:42;1.60;;;1.50;;
9986;SDS011;5033;46.310;11.214;2023-06-14T01:44:10;1.90;;;1.80;;
9986;SDS011;5033;46.310;11.214;2023-06-14T01:46:40;1.70;;;1.60;;
9986;SDS011;5033;46.310;11.214;2023-06-14T01:49:08;2.00;;;1.90;;
9986;SDS011;5033;46.310;11.214;2023-06-14T01:51:36;2.03;;;1.83;;
9986;SDS011;5033;46.310;11.214;2023-06-14T01:54:03;1.70;;;1.60;;
9986;SDS011;5033;46.310;11.214;2023-06-14T01:56:30;1.95;;;1.85;;
9986;SDS011;5033;46.310;11.214;2023-06-14T01:58:59;1.85;;;1.75;;
9986;SDS011;5033;46.310;11.214;2023-06-14T02:01:26;1.85;;;1.75;;
9986;SDS011;5033;46.310;11.214;2023-06-14T02:03:53;1.70;;;1.60;;
9986;SDS011;5033;46.310;11.214;2023-06-14T02:06:20;1.80;;;1.70;;
9986;SDS011;5033;46.310;11.214;2023-06-14T02:08:47;1.63;;;1.50;;
9986;SDS011;5033;46.310;11.214;2023-06-14T02:11:14;1.80;;;1.70;;
9986;SDS011;5033;46.310;11.214;2023-06-14T02:13:40;1.67;;;1.58;;
9986;SDS011;5033;46.310;11.214;2023-06-14T02:16:09;1.90;;;1.80;;
9986;SDS011;5033;46.310;11.214;2023-06-14T02:18:36;2.10;;;1.88;;
9986;SDS011;5033;46.310;11.214;2023-06-14T02:21:03;1.80;;;1.70;;
9986;SDS011;5033;46.310;11.214;2023-06-14T02:23:29;1.60;;;1.50;;
9986;SDS011;5033;46.310;11.214;2023-06-14T02:25:57;1.70;;;1.60;;
9986;SDS011;5033;46.310;11.214;2023-06-14T02:28:24;1.75;;;1.65;;
9986;SDS011;5033;46.310;11.214;2023-06-14T02:30:51;1.65;;;1.55;;
9986;SDS011;5033;46.310;11.214;2023-06-14T02:33:19;1.77;;;1.67;;
9986;SDS011;5033;46.310;11.214;2023-06-14T02:35:47;1.92;;;1.83;;
9986;SDS011;5033;46.310;11.214;2023-06-14T02:38:14;1.55;;;1.45;;
9986;SDS011;5033;46.310;11.214;2023-06-14T02:40:40;1.80;;;1.70;;
9986;SDS011;5033;46.310;11.214;2023-06-14T02:43:08;1.70;;;1.60;;
9986;SDS011;5033;46.310;11.214;2023-06-14T02:45:34;1.73;;;1.63;;
9986;SDS011;5033;46.310;11.214;2023-06-14T02:48:01;1.73;;;1.63;;
9986;SDS011;5033;46.310;11.214;2023-06-14T02:50:30;1.83;;;1.73;;
9986;SDS011;5033;46.310;11.214;2023-06-14T02:52:57;1.85;;;1.75;;
9986;SDS011;5033;46.310;11.214;2023-06-14T02:55:24;1.60;;;1.50;;
9986;SDS011;5033;46.310;11.214;2023-06-14T02:57:51;2.00;;;1.90;;
9986;SDS011;5033;46.310;11.214;2023-06-14T03:00:18;1.90;;;1.80;;
9986;SDS011;5033;46.310;11.214;2023-06-14T03:02:45;1.80;;;1.70;;
9986;SDS011;5033;46.310;11.214;2023-06-14T03:05:12;2.45;;;1.85;;
9986;SDS011;5033;46.310;11.214;2023-06-14T03:07:41;2.00;;;1.90;;
9986;SDS011;5033;46.310;11.214;2023-06-14T03:10:10;1.77;;;1.67;;
9986;SDS011;5033;46.310;11.214;2023-06-14T03:12:38;1.98;;;1.88;;
9986;SDS011;5033;46.310;11.214;2023-06-14T03:15:05;1.60;;;1.50;;
9986;SDS011;5033;46.310;11.214;2023-06-14T03:17:32;1.73;;;1.63;;
9986;SDS011;5033;46.310;11.214;2023-06-14T03:20:00;1.80;;;1.70;;
9986;SDS011;5033;46.310;11.214;2023-06-14T03:22:27;2.13;;;1.92;;
9986;SDS011;5033;46.310;11.214;2023-06-14T03:24:56;1.83;;;1.73;;
9986;SDS011;5033;46.310;11.214;2023-06-14T03:27:24;2.15;;;1.95;;
9986;SDS011;5033;46.310;11.214;2023-06-14T03:29:53;1.80;;;1.70;;
9986;SDS011;5033;46.310;11.214;2023-06-14T03:32:20;2.15;;;2.05;;
9986;SDS011;5033;46.310;11.214;2023-06-14T03:34:47;1.92;;;1.80;;
9986;SDS011;5033;46.310;11.214;2023-06-14T03:37:14;1.90;;;1.80;;
9986;SDS011;5033;46.310;11.214;2023-06-14T03:39:41;1.75;;;1.65;;
9986;SDS011;5033;46.310;11.214;2023-06-14T03:42:12;1.70;;;1.60;;
9986;SDS011;5033;46.310;11.214;2023-06-14T03:44:40;2.10;;;2.00;;
9986;SDS011;5033;46.310;11.214;2023-06-14T03:47:07;1.83;;;1.73;;
9986;SDS011;5033;46.310;11.214;2023-06-14T03:49:34;2.17;;;2.05;;
9986;SDS011;5033;46.310;11.214;2023-06-14T03:52:02;2.30;;;2.10;;
9986;SDS011;5033;46.310;11.214;2023-06-14T03:54:29;1.98;;;1.88;;
9986;SDS011;5033;46.310;11.214;2023-06-14T03:56:57;2.20;;;2.10;;
9986;SDS011;5033;46.310;11.214;2023-06-14T03:59:26;2.30;;;2.17;;
9986;SDS011;5033;46.310;11.214;2023-06-14T04:01:53;2.03;;;1.90;;
9986;SDS011;5033;46.310;11.214;2023-06-14T04:04:21;2.55;;;2.40;;
9986;SDS011;5033;46.310;11.214;2023-06-14T04:06:54;2.58;;;2.38;;
9986;SDS011;5033;46.310;11.214;2023-06-14T04:09:21;2.10;;;2.00;;
9986;SDS011;5033;46.310;11.214;2023-06-14T04:11:49;2.00;;;1.90;;
9986;SDS011;5033;46.310;11.214;2023-06-14T04:14:17;2.65;;;2.30;;
9986;SDS011;5033;46.310;11.214;2023-06-14T04:16:46;2.08;;;1.98;;
9986;SDS011;5033;46.310;11.214;2023-06-14T04:19:13;2.60;;;2.40;;
9986;SDS011;5033;46.310;11.214;2023-06-14T04:21:40;2.40;;;2.20;;
9986;SDS011;5033;46.310;11.214;2023-06-14T04:24:08;2.60;;;2.40;;
9986;SDS011;5033;46.310;11.214;2023-06-14T04:26:38;2.58;;;2.38;;
9986;SDS011;5033;46.310;11.214;2023-06-14T04:29:05;2.47;;;2.28;;
9986;SDS011;5033;46.310;11.214;2023-06-14T04:31:32;2.40;;;2.30;;
9986;SDS011;5033;46.310;11.214;2023-06-14T04:34:03;2.60;;;2.40;;
9986;SDS011;5033;46.310;11.214;2023-06-14T04:36:31;2.80;;;2.60;;
9986;SDS011;5033;46.310;11.214;2023-06-14T04:38:59;2.63;;;2.42;;
9986;SDS011;5033;46.310;11.214;2023-06-14T04:41:28;3.10;;;2.90;;
9986;SDS011;5033;46.310;11.214;2023-06-14T04:43:56;2.80;;;2.60;;
9986;SDS011;5033;46.310;11.214;2023-06-14T04:46:26;2.50;;;2.30;;
9986;SDS011;5033;46.310;11.214;2023-06-14T04:48:53;2.85;;;2.65;;
9986;SDS011;5033;46.310;11.214;2023-06-14T04:51:23;3.25;;;2.80;;
9986;SDS011;5033;46.310;11.214;2023-06-14T04:53:54;2.83;;;2.63;;
9986;SDS011;5033;46.310;11.214;2023-06-14T04:56:23;2.63;;;2.53;;
9986;SDS011;5033;46.310;11.214;2023-06-14T04:58:51;2.95;;;2.75;;
9986;SDS011;5033;46.310;11.214;2023-06-14T05:01:18;5.22;;;3.78;;
9986;SDS011;5033;46.310;11.214;2023-06-14T05:03:46;3.53;;;3.28;;
9986;SDS011;5033;46.310;11.214;2023-06-14T05:06:14;3.65;;;2.90;;
9986;SDS011;5033;46.310;11.214;2023-06-14T05:08:43;3.30;;;2.72;;
9986;SDS011;5033;46.310;11.214;2023-06-14T05:11:10;2.72;;;2.53;;
9986;SDS011;5033;46.310;11.214;2023-06-14T05:13:37;2.90;;;2.70;;
9986;SDS011;5033;46.310;11.214;2023-06-14T05:16:05;2.42;;;2.22;;
9986;SDS011;5033;46.310;11.214;2023-06-14T05:18:32;2.25;;;2.15;;
9986;SDS011;5033;46.310;11.214;2023-06-14T05:21:00;2.58;;;2.38;;
9986;SDS011;5033;46.310;11.214;2023-06-14T05:23:27;2.67;;;2.47;;
9986;SDS011;5033;46.310;11.214;2023-06-14T05:25:55;2.65;;;2.45;;
9986;SDS011;5033;46.310;11.214;2023-06-14T05:28:22;2.95;;;2.53;;
9986;SDS011;5033;46.310;11.214;2023-06-14T05:30:49;2.88;;;2.67;;
9986;SDS011;5033;46.310;11.214;2023-06-14T05:33:17;3.13;;;2.92;;
9986;SDS011;5033;46.310;11.214;2023-06-14T05:35:44;2.95;;;2.75;;
9986;SDS011;5033;46.310;11.214;2023-06-14T05:38:11;3.08;;;2.88;;
9986;SDS011;5033;46.310;11.214;2023-06-14T05:40:38;2.55;;;2.35;;
9986;SDS011;5033;46.310;11.214;2023-06-14T05:43:07;4.85;;;3.38;;
9986;SDS011;5033;46.310;11.214;2023-06-14T05:45:34;5.00;;;3.70;;
9986;SDS011;5033;46.310;11.214;2023-06-14T05:48:01;3.88;;;3.50;;
9986;SDS011;5033;46.310;11.214;2023-06-14T05:50:28;4.00;;;3.70;;
9986;SDS011;5033;46.310;11.214;2023-06-14T05:52:55;3.75;;;3.55;;
9986;SDS011;5033;46.310;11.214;2023-06-14T05:55:22;3.78;;;3.40;;
9986;SDS011;5033;46.310;11.214;2023-06-14T05:57:49;3.70;;;3.40;;
9986;SDS011;5033;46.310;11.214;2023-06-14T06:00:18;3.75;;;3.45;;
9986;SDS011;5033;46.310;11.214;2023-06-14T06:02:45;3.45;;;3.15;;
9986;SDS011;5033;46.310;11.214;2023-06-14T06:05:13;3.70;;;3.50;;
9986;SDS011;5033;46.310;11.214;2023-06-14T06:07:41;3.20;;;3.00;;
9986;SDS011;5033;46.310;11.214;2023-06-14T06:10:09;3.40;;;3.17;;
9986;SDS011;5033;46.310;11.214;2023-06-14T06:12:36;3.05;;;2.85;;
9986;SDS011;5033;46.310;11.214;2023-06-14T06:15:04;3.15;;;2.95;;
9986;SDS011;5033;46.310;11.214;2023-06-14T06:17:34;2.88;;;2.67;;
9986;SDS011;5033;46.310;11.214;2023-06-14T06:20:01;3.20;;;2.85;;
9986;SDS011;5033;46.310;11.214;2023-06-14T06:22:28;3.45;;;2.70;;
9986;SDS011;5033;46.310;11.214;2023-06-14T06:24:55;2.83;;;2.63;;
9986;SDS011;5033;46.310;11.214;2023-06-14T06:27:22;3.03;;;2.80;;
9986;SDS011;5033;46.310;11.214;2023-06-14T06:29:49;3.20;;;2.90;;
9986;SDS011;5033;46.310;11.214;2023-06-14T06:32:16;3.53;;;3.15;;
9986;SDS011;5033;46.310;11.214;2023-06-14T06:34:45;4.55;;;2.90;;
9986;SDS011;5033;46.310;11.214;2023-06-14T06:37:12;3.30;;;3.00;;
9986;SDS011;5033;46.310;11.214;2023-06-14T06:39:40;2.88;;;2.67;;
9986;SDS011;5033;46.310;11.214;2023-06-14T06:42:07;2.88;;;2.67;;
9986;SDS011;5033;46.310;11.214;2023-06-14T06:44:34;6.28;;;2.80;;
9986;SDS011;5033;46.310;11.214;2023-06-14T06:47:01;2.42;;;2.22;;
9986;SDS011;5033;46.310;11.214;2023-06-14T06:49:28;2.72;;;2.35;;
9986;SDS011;5033;46.310;11.214;2023-06-14T06:52:03;2.53;;;2.33;;
9986;SDS011;5033;46.310;11.214;2023-06-14T06:54:31;3.15;;;2.60;;
9986;SDS011;5033;46.310;11.214;2023-06-14T06:56:58;2.78;;;2.30;;
9986;SDS011;5033;46.310;11.214;2023-06-14T06:59:26;2.65;;;2.45;;
9986;SDS011;5033;46.310;11.214;2023-06-14T07:01:53;2.83;;;2.60;;
9986;SDS011;5033;46.310;11.214;2023-06-14T07:04:20;2.53;;;2.33;;
9986;SDS011;5033;46.310;11.214;2023-06-14T07:06:47;2.55;;;2.33;;
9986;SDS011;5033;46.310;11.214;2023-06-14T07:09:15;2.92;;;2.58;;
9986;SDS011;5033;46.310;11.214;2023-06-14T07:11:44;3.35;;;2.60;;
9986;SDS011;5033;46.310;11.214;2023-06-14T07:14:13;2.70;;;2.40;;
9986;SDS011;5033;46.310;11.214;2023-06-14T07:16:40;3.50;;;2.80;;
9986;SDS011;5033;46.310;11.214;2023-06-14T07:19:08;4.57;;;3.17;;
9986;SDS011;5033;46.310;11.214;2023-06-14T07:21:35;2.70;;;2.50;;
9986;SDS011;5033;46.310;11.214;2023-06-14T07:24:03;3.80;;;2.90;;
9986;SDS011;5033;46.310;11.214;2023-06-14T07:26:34;4.10;;;2.47;;
9986;SDS011;5033;46.310;11.214;2023-06-14T07:29:01;2.95;;;2.75;;
9986;SDS011;5033;46.310;11.214;2023-06-14T07:31:28;4.93;;;2.53;;
9986;SDS011;5033;46.310;11.214;2023-06-14T07:33:55;2.88;;;2.67;;
9986;SDS011;5033;46.310;11.214;2023-06-14T07:36:22;2.75;;;2.25;;
9986;SDS011;5033;46.310;11.214;2023-06-14T07:38:50;2.15;;;2.05;;
9986;SDS011;5033;46.310;11.214;2023-06-14T07:41:17;3.20;;;2.25;;
9986;SDS011;5033;46.310;11.214;2023-06-14T07:43:45;2.30;;;2.13;;
9986;SDS011;5033;46.310;11.214;2023-06-14T07:46:12;2.65;;;2.45;;
9986;SDS011;5033;46.310;11.214;2023-06-14T07:48:39;2.45;;;2.35;;
9986;SDS011;5033;46.310;11.214;2023-06-14T07:51:06;2.53;;;2.30;;
9986;SDS011;5033;46.310;11.214;2023-06-14T07:53:33;2.53;;;2.33;;
9986;SDS011;5033;46.310;11.214;2023-06-14T07:56:00;3.38;;;2.20;;
9986;SDS011;5033;46.310;11.214;2023-06-14T07:58:27;2.92;;;2.72;;
9986;SDS011;5033;46.310;11.214;2023-06-14T08:00:56;2.65;;;2.45;;
9986;SDS011;5033;46.310;11.214;2023-06-14T08:03:22;2.50;;;2.30;;
9986;SDS011;5033;46.310;11.214;2023-06-14T08:05:50;3.15;;;2.30;;
9986;SDS011;5033;46.310;11.214;2023-06-14T08:08:17;2.97;;;2.78;;
9986;SDS011;5033;46.310;11.214;2023-06-14T08:10:44;3.67;;;2.30;;
9986;SDS011;5033;46.310;11.214;2023-06-14T08:13:11;2.75;;;2.55;;
9986;SDS011;5033;46.310;11.214;2023-06-14T08:15:38;2.80;;;2.50;;
9986;SDS011;5033;46.310;11.214;2023-06-14T08:18:06;3.25;;;2.15;;
9986;SDS011;5033;46.310;11.214;2023-06-14T08:20:33;2.60;;;2.40;;
9986;SDS011;5033;46.310;11.214;2023-06-14T08:23:01;2.45;;;2.25;;
9986;SDS011;5033;46.310;11.214;2023-06-14T08:25:29;2.60;;;2.40;;
9986;SDS011;5033;46.310;11.214;2023-06-14T08:27:56;2.67;;;2.47;;
9986;SDS011;5033;46.310;11.214;2023-06-14T08:30:22;3.28;;;2.22;;
9986;SDS011;5033;46.310;11.214;2023-06-14T08:32:49;2.58;;;2.38;;
9986;SDS011;5033;46.310;11.214;2023-06-14T08:35:18;2.70;;;2.50;;
9986;SDS011;5033;46.310;11.214;2023-06-14T08:37:45;2.70;;;2.50;;
9986;SDS011;5033;46.310;11.214;2023-06-14T08:40:16;2.40;;;2.20;;
9986;SDS011;5033;46.310;11.214;2023-06-14T08:42:47;2.55;;;2.30;;
9986;SDS011;5033;46.310;11.214;2023-06-14T08:45:16;3.17;;;2.22;;
9986;SDS011;5033;46.310;11.214;2023-06-14T08:47:43;2.65;;;2.45;;
9986;SDS011;5033;46.310;11.214;2023-06-14T08:50:11;2.78;;;2.58;;
9986;SDS011;5033;46.310;11.214;2023-06-14T08:52:42;2.53;;;2.33;;
9986;SDS011;5033;46.310;11.214;2023-06-14T08:55:15;2.42;;;2.22;;
9986;SDS011;5033;46.310;11.214;2023-06-14T08:57:45;3.22;;;2.65;;
9986;SDS011;5033;46.310;11.214;2023-06-14T09:00:14;2.20;;;2.10;;
9986;SDS011;5033;46.310;11.214;2023-06-14T09:02:42;2.45;;;2.25;;
9986;SDS011;5033;46.310;11.214;2023-06-14T09:05:10;2.33;;;2.13;;
9986;SDS011;5033;46.310;11.214;2023-06-14T09:07:38;2.25;;;2.15;;
9986;SDS011;5033;46.310;11.214;2023-06-14T09:10:09;2.10;;;2.00;;
9986;SDS011;5033;46.310;11.214;2023-06-14T09:12:37;2.70;;;2.50;;
9986;SDS011;5033;46.310;11.214;2023-06-14T09:15:05;2.50;;;2.30;;
9986;SDS011;5033;46.310;11.214;2023-06-14T09:17:33;2.40;;;2.30;;
9986;SDS011;5033;46.310;11.214;2023-06-14T09:20:01;2.65;;;2.33;;
9986;SDS011;5033;46.310;11.214;2023-06-14T09:22:31;2.40;;;2.20;;
9986;SDS011;5033;46.310;11.214;2023-06-14T09:24:58;2.40;;;2.30;;
9986;SDS011;5033;46.310;11.214;2023-06-14T09:27:27;2.10;;;2.00;;
9986;SDS011;5033;46.310;11.214;2023-06-14T09:29:54;2.13;;;2.03;;
9986;SDS011;5033;46.310;11.214;2023-06-14T09:32:21;2.55;;;2.35;;
9986;SDS011;5033;46.310;11.214;2023-06-14T09:34:48;2.28;;;2.08;;
9986;SDS011;5033;46.310;11.214;2023-06-14T09:37:26;2.42;;;2.22;;
9986;SDS011;5033;46.310;11.214;2023-06-14T09:39:54;3.55;;;2.00;;
9986;SDS011;5033;46.310;11.214;2023-06-14T09:42:21;1.90;;;1.80;;
9986;SDS011;5033;46.310;11.214;2023-06-14T09:44:52;2.00;;;1.90;;
9986;SDS011;5033;46.310;11.214;2023-06-14T09:47:20;2.40;;;2.20;;
9986;SDS011;5033;46.310;11.214;2023-06-14T09:49:48;2.83;;;2.20;;
9986;SDS011;5033;46.310;11.214;2023-06-14T09:52:17;1.92;;;1.83;;
9986;SDS011;5033;46.310;11.214;2023-06-14T09:54:45;2.00;;;1.90;;
9986;SDS011;5033;46.310;11.214;2023-06-14T09:57:14;2.40;;;2.20;;
9986;SDS011;5033;46.310;11.214;2023-06-14T09:59:43;1.80;;;1.70;;
9986;SDS011;5033;46.310;11.214;2023-06-14T10:02:17;2.20;;;2.00;;
9986;SDS011;5033;46.310;11.214;2023-06-14T10:04:50;2.03;;;1.92;;
9986;SDS011;5033;46.310;11.214;2023-06-14T10:07:25;4.15;;;1.95;;
9986;SDS011;5033;46.310;11.214;2023-06-14T10:09:55;2.40;;;2.20;;
9986;SDS011;5033;46.310;11.214;2023-06-14T10:12:23;3.67;;;2.03;;
9986;SDS011;5033;46.310;11.214;2023-06-14T10:14:51;3.13;;;2.80;;
9986;SDS011;5033;46.310;11.214;2023-06-14T10:17:25;3.53;;;2.38;;
9986;SDS011;5033;46.310;11.214;2023-06-14T10:19:58;2.13;;;2.03;;
9986;SDS011;5033;46.310;11.214;2023-06-14T10:22:37;3.72;;;2.42;;
9986;SDS011;5033;46.310;11.214;2023-06-14T10:25:12;2.60;;;2.40;;
9986;SDS011;5033;46.310;11.214;2023-06-14T10:27:51;2.60;;;2.40;;
9986;SDS011;5033;46.310;11.214;2023-06-14T10:30:18;2.75;;;2.55;;
9986;SDS011;5033;46.310;11.214;2023-06-14T10:33:05;3.55;;;2.70;;
9986;SDS011;5033;46.310;11.214;2023-06-14T10:35:33;3.05;;;2.45;;
9986;SDS011;5033;46.310;11.214;2023-06-14T10:38:07;2.70;;;2.50;;
9986;SDS011;5033;46.310;11.214;2023-06-14T10:40:34;2.72;;;2.60;;
9986;SDS011;5033;46.310;11.214;2023-06-14T10:48:44;2.88;;;2.40;;
9986;SDS011;5033;46.310;11.214;2023-06-14T10:51:18;2.28;;;2.17;;
9986;SDS011;5033;46.310;11.214;2023-06-14T10:53:49;4.43;;;2.17;;
9986;SDS011;5033;46.310;11.214;2023-06-14T10:56:23;2.88;;;2.25;;
9986;SDS011;5033;46.310;11.214;2023-06-14T10:58:55;2.45;;;2.25;;
9986;SDS011;5033;46.310;11.214;2023-06-14T11:01:26;2.40;;;2.20;;
9986;SDS011;5033;46.310;11.214;2023-06-14T11:04:07;2.53;;;2.25;;
9986;SDS011;5033;46.310;11.214;2023-06-14T11:06:41;2.30;;;2.10;;
9986;SDS011;5033;46.310;11.214;2023-06-14T11:12:11;2.58;;;2.30;;
9986;SDS011;5033;46.310;11.214;2023-06-14T11:14:39;3.25;;;2.10;;
9986;SDS011;5033;46.310;11.214;2023-06-14T11:17:06;2.50;;;2.20;;
9986;SDS011;5033;46.310;11.214;2023-06-14T11:19:34;2.67;;;2.13;;
9986;SDS011;5033;46.310;11.214;2023-06-14T11:22:01;2.53;;;2.35;;
9986;SDS011;5033;46.310;11.214;2023-06-14T11:24:28;3.60;;;2.10;;
9986;SDS011;5033;46.310;11.214;2023-06-14T11:26:55;2.50;;;2.30;;
9986;SDS011;5033;46.310;11.214;2023-06-14T11:29:23;2.35;;;2.00;;
9986;SDS011;5033;46.310;11.214;2023-06-14T11:31:50;2.53;;;2.38;;
9986;SDS011;5033;46.310;11.214;2023-06-14T11:34:17;2.20;;;2.05;;
9986;SDS011;5033;46.310;11.214;2023-06-14T11:36:48;2.58;;;2.38;;
9986;SDS011;5033;46.310;11.214;2023-06-14T11:39:15;2.40;;;2.20;;
9986;SDS011;5033;46.310;11.214;2023-06-14T11:41:43;2.35;;;2.13;;
9986;SDS011;5033;46.310;11.214;2023-06-14T11:44:11;2.42;;;2.30;;
9986;SDS011;5033;46.310;11.214;2023-06-14T11:46:38;2.50;;;2.30;;
9986;SDS011;5033;46.310;11.214;2023-06-14T11:49:06;2.40;;;2.20;;
9986;SDS011;5033;46.310;11.214;2023-06-14T11:51:34;2.53;;;2.15;;
9986;SDS011;5033;46.310;11.214;2023-06-14T11:54:03;2.35;;;2.15;;
9986;SDS011;5033;46.310;11.214;2023-06-14T11:56:32;2.42;;;2.22;;
9986;SDS011;5033;46.310;11.214;2023-06-14T11:58:59;2.20;;;2.00;;
9986;SDS011;5033;46.310;11.214;2023-06-14T12:01:30;2.08;;;1.90;;
9986;SDS011;5033;46.310;11.214;2023-06-14T12:03:58;2.35;;;2.15;;
9986;SDS011;5033;46.310;11.214;2023-06-14T12:06:26;2.10;;;2.00;;
9986;SDS011;5033;46.310;11.214;2023-06-14T12:08:58;2.28;;;2.17;;
9986;SDS011;5033;46.310;11.214;2023-06-14T12:11:31;2.22;;;2.13;;
9986;SDS011;5033;46.310;11.214;2023-06-14T12:13:59;2.42;;;2.22;;
9986;SDS011;5033;46.310;11.214;2023-06-14T12:16:29;2.60;;;2.10;;
9986;SDS011;5033;46.310;11.214;2023-06-14T12:19:08;2.22;;;2.03;;
9986;SDS011;5033;46.310;11.214;2023-06-14T12:21:36;2.10;;;1.90;;
9986;SDS011;5033;46.310;11.214;2023-06-14T12:24:05;2.22;;;2.13;;
9986;SDS011;5033;46.310;11.214;2023-06-14T12:26:37;2.17;;;2.08;;
9986;SDS011;5033;46.310;11.214;2023-06-14T12:29:05;2.13;;;2.03;;
9986;SDS011;5033;46.310;11.214;2023-06-14T12:31:32;2.08;;;1.88;;
9986;SDS011;5033;46.310;11.214;2023-06-14T12:34:01;2.00;;;1.80;;
9986;SDS011;5033;46.310;11.214;2023-06-14T12:36:28;2.17;;;2.03;;
9986;SDS011;5033;46.310;11.214;2023-06-14T12:38:56;5.63;;;1.95;;
9986;SDS011;5033;46.310;11.214;2023-06-14T12:41:23;2.20;;;2.00;;
9986;SDS011;5033;46.310;11.214;2023-06-14T12:43:53;2.13;;;2.00;;
9986;SDS011;5033;46.310;11.214;2023-06-14T12:46:23;1.83;;;1.73;;
9986;SDS011;5033;46.310;11.214;2023-06-14T12:48:50;2.13;;;1.70;;
9986;SDS011;5033;46.310;11.214;2023-06-14T12:51:17;2.38;;;1.77;;
9986;SDS011;5033;46.310;11.214;2023-06-14T12:53:43;1.90;;;1.80;;
9986;SDS011;5033;46.310;11.214;2023-06-14T12:56:10;2.08;;;1.92;;
9986;SDS011;5033;46.310;11.214;2023-06-14T12:58:37;2.72;;;2.22;;
9986;SDS011;5033;46.310;11.214;2023-06-14T13:01:06;2.88;;;2.05;;
9986;SDS011;5033;46.310;11.214;2023-06-14T13:03:33;2.17;;;1.98;;
9986;SDS011;5033;46.310;11.214;2023-06-14T13:06:00;1.88;;;1.77;;
9986;SDS011;5033;46.310;11.214;2023-06-14T13:08:28;3.30;;;2.08;;
9986;SDS011;5033;46.310;11.214;2023-06-14T13:10:56;1.80;;;1.70;;
9986;SDS011;5033;46.310;11.214;2023-06-14T13:13:23;1.75;;;1.65;;
9986;SDS011;5033;46.310;11.214;2023-06-14T13:15:50;3.30;;;1.98;;
9986;SDS011;5033;46.310;11.214;2023-06-14T13:18:18;1.67;;;1.58;;
9986;SDS011;5033;46.310;11.214;2023-06-14T13:20:45;2.60;;;2.03;;
9986;SDS011;5033;46.310;11.214;2023-06-14T13:23:13;1.80;;;1.70;;
9986;SDS011;5033;46.310;11.214;2023-06-14T13:25:41;1.70;;;1.60;;
9986;SDS011;5033;46.310;11.214;2023-06-14T13:28:08;1.90;;;1.80;;
9986;SDS011;5033;46.310;11.214;2023-06-14T13:30:35;1.92;;;1.73;;
9986;SDS011;5033;46.310;11.214;2023-06-14T13:33:03;2.00;;;1.90;;
9986;SDS011;5033;46.310;11.214;2023-06-14T13:35:31;2.33;;;2.00;;
9986;SDS011;5033;46.310;11.214;2023-06-14T13:37:58;3.80;;;2.22;;
9986;SDS011;5033;46.310;11.214;2023-06-14T13:40:25;3.08;;;2.38;;
9986;SDS011;5033;46.310;11.214;2023-06-14T13:42:52;2.53;;;2.33;;
9986;SDS011;5033;46.310;11.214;2023-06-14T13:45:19;2.22;;;2.00;;
9986;SDS011;5033;46.310;11.214;2023-06-14T13:47:46;2.03;;;1.92;;
9986;SDS011;5033;46.310;11.214;2023-06-14T13:50:13;2.35;;;1.92;;
9986;SDS011;5033;46.310;11.214;2023-06-14T13:52:42;2.55;;;2.35;;
9986;SDS011;5033;46.310;11.214;2023-06-14T13:55:09;1.85;;;1.75;;
9986;SDS011;5033;46.310;11.214;2023-06-14T13:57:36;2.30;;;2.10;;
9986;SDS011;5033;46.310;11.214;2023-06-14T14:00:04;2.92;;;2.38;;
9986;SDS011;5033;46.310;11.214;2023-06-14T14:02:33;2.30;;;2.10;;
9986;SDS011;5033;46.310;11.214;2023-06-14T14:05:00;2.00;;;1.90;;
9986;SDS011;5033;46.310;11.214;2023-06-14T14:07:30;1.70;;;1.60;;
9986;SDS011;5033;46.310;11.214;2023-06-14T14:09:58;2.65;;;2.20;;
9986;SDS011;5033;46.310;11.214;2023-06-14T14:12:39;1.98;;;1.80;;
9986;SDS011;5033;46.310;11.214;2023-06-14T14:15:10;2.00;;;1.90;;
9986;SDS011;5033;46.310;11.214;2023-06-14T14:17:39;2.05;;;1.95;;
9986;SDS011;5033;46.310;11.214;2023-06-14T14:20:07;4.53;;;2.47;;
9986;SDS011;5033;46.310;11.214;2023-06-14T14:22:36;2.13;;;2.03;;
9986;SDS011;5033;46.310;11.214;2023-06-14T14:25:05;2.40;;;2.20;;
9986;SDS011;5033;46.310;11.214;2023-06-14T14:27:32;2.38;;;2.22;;
9986;SDS011;5033;46.310;11.214;2023-06-14T14:29:59;4.07;;;2.15;;
9986;SDS011;5033;46.310;11.214;2023-06-14T14:32:26;2.63;;;2.40;;
9986;SDS011;5033;46.310;11.214;2023-06-14T14:34:53;2.65;;;2.25;;
9986;SDS011;5033;46.310;11.214;2023-06-14T14:37:20;4.78;;;2.58;;
9986;SDS011;5033;46.310;11.214;2023-06-14T14:39:46;2.33;;;2.10;;
9986;SDS011;5033;46.310;11.214;2023-06-14T14:42:15;2.65;;;2.45;;
9986;SDS011;5033;46.310;11.214;2023-06-14T14:44:42;4.45;;;2.53;;
9986;SDS011;5033;46.310;11.214;2023-06-14T14:47:09;2.47;;;2.20;;
9986;SDS011;5033;46.310;11.214;2023-06-14T14:49:36;2.70;;;2.50;;
9986;SDS011;5033;46.310;11.214;2023-06-14T14:52:05;4.00;;;2.33;;
9986;SDS011;5033;46.310;11.214;2023-06-14T14:54:33;2.50;;;2.30;;
9986;SDS011;5033;46.310;11.214;2023-06-14T14:57:01;2.63;;;2.42;;
9986;SDS011;5033;46.310;11.214;2023-06-14T14:59:29;4.95;;;2.80;;
9986;SDS011;5033;46.310;11.214;2023-06-14T15:01:56;2.40;;;2.20;;
9986;SDS011;5033;46.310;11.214;2023-06-14T15:04:23;2.60;;;2.40;;
9986;SDS011;5033;46.310;11.214;2023-06-14T15:06:50;2.60;;;2.40;;
9986;SDS011;5033;46.310;11.214;2023-06-14T15:09:17;4.22;;;2.22;;
9986;SDS011;5033;46.310;11.214;2023-06-14T15:11:44;2.85;;;2.60;;
9986;SDS011;5033;46.310;11.214;2023-06-14T15:14:11;2.67;;;2.47;;
9986;SDS011;5033;46.310;11.214;2023-06-14T15:16:39;3.28;;;3.05;;
9986;SDS011;5033;46.310;11.214;2023-06-14T15:19:06;3.42;;;2.47;;